createdAt,value
2023-02-12T00:00:24.154Z,51.83
2023-02-12T00:02:55.225Z,57.03
2023-02-12T00:05:27.017Z,49.83
2023-02-12T00:07:57.616Z,48.28
2023-02-12T00:10:25.511Z,59.17
2023-02-12T00:13:01.206Z,66.38
2023-02-12T00:15:28.786Z,71.55
2023-02-12T00:17:56.653Z,64.57
2023-02-12T00:20:27.525Z,61.97
2023-02-12T00:23:01.454Z,62.47
2023-02-12T00:25:28.916Z,62.28
2023-02-12T00:27:57.047Z,58.10
2023-02-12T00:30:26.551Z,45.75
2023-02-12T00:32:56.325Z,53.42
2023-02-12T00:35:24.069Z,51.92
2023-02-12T00:37:51.828Z,44.03
2023-02-12T00:40:19.896Z,42.20
2023-02-12T00:42:47.662Z,42.80
2023-02-12T00:45:18.552Z,45.15
2023-02-12T00:47:46.060Z,42.78
2023-02-12T00:50:15.593Z,45.70
2023-02-12T00:52:43.192Z,42.42
2023-02-12T00:55:10.815Z,41.03
2023-02-12T00:57:38.370Z,42.92
2023-02-12T01:00:06.771Z,39.28
2023-02-12T01:02:35.927Z,47.88
2023-02-12T01:05:03.559Z,42.00
2023-02-12T01:07:31.241Z,52.13
2023-02-12T01:09:58.658Z,38.65
2023-02-12T01:12:26.184Z,44.85
2023-02-12T01:14:55.085Z,47.08
2023-02-12T01:17:22.867Z,43.65
2023-02-12T01:19:50.625Z,48.47
2023-02-12T01:22:18.097Z,43.33
2023-02-12T01:24:45.827Z,56.42
2023-02-12T01:27:13.288Z,59.22
2023-02-12T01:29:44.691Z,55.00
2023-02-12T01:32:13.117Z,77.80
2023-02-12T01:34:40.626Z,108.57
2023-02-12T01:37:08.151Z,86.80
2023-02-12T01:39:37.213Z,58.55
2023-02-12T01:42:06.124Z,65.05
2023-02-12T01:44:37.485Z,64.95
2023-02-12T01:47:06.675Z,66.07
2023-02-12T01:49:37.100Z,72.97
2023-02-12T01:52:11.210Z,67.07
2023-02-12T01:54:39.392Z,77.30
2023-02-12T01:57:10.327Z,67.07
2023-02-12T01:59:40.473Z,70.28
2023-02-12T02:02:08.487Z,66.90
2023-02-12T02:04:46.618Z,80.78
2023-02-12T02:07:16.024Z,70.25
2023-02-12T02:09:43.860Z,66.47
2023-02-12T02:12:29.863Z,63.22
2023-02-12T02:15:00.423Z,72.25
2023-02-12T02:18:01.597Z,66.50
2023-02-12T02:21:02.313Z,58.30
2023-02-12T02:23:49.087Z,59.95
2023-02-12T02:26:50.845Z,60.67
2023-02-12T02:29:24.695Z,59.75
2023-02-12T02:31:58.670Z,47.95
2023-02-12T02:34:29.629Z,46.42
2023-02-12T02:37:09.364Z,43.70
2023-02-12T02:39:48.870Z,39.47
2023-02-12T02:42:51.992Z,42.60
2023-02-12T02:45:35.019Z,64.10
2023-02-12T02:48:14.477Z,63.50
2023-02-12T02:50:49.864Z,64.78
2023-02-12T02:53:23.583Z,62.72
2023-02-12T02:55:55.588Z,50.83
2023-02-12T02:58:38.152Z,65.88
2023-02-12T03:01:38.816Z,62.10
2023-02-12T03:04:15.417Z,64.53
2023-02-12T03:06:48.684Z,57.83
2023-02-12T03:09:19.357Z,44.45
2023-02-12T03:11:47.606Z,50.20
2023-02-12T03:14:21.955Z,44.67
2023-02-12T03:19:22.147Z,58.65
2023-02-12T03:21:56.539Z,116.90
2023-02-12T03:24:36.286Z,146.25
2023-02-12T03:27:26.919Z,156.77
2023-02-12T03:29:54.629Z,151.30
2023-02-12T03:32:41.492Z,149.50
2023-02-12T03:35:47.968Z,142.00
2023-02-12T03:38:25.801Z,72.72
2023-02-12T03:41:09.797Z,74.95
2023-02-12T03:43:57.570Z,52.10
2023-02-12T03:46:40.390Z,61.88
2023-02-12T03:49:21.148Z,39.83
2023-02-12T03:51:51.166Z,43.78
2023-02-12T03:54:21.421Z,42.10
2023-02-12T03:56:52.912Z,45.88
2023-02-12T03:59:22.855Z,48.88
2023-02-12T04:01:54.927Z,52.33
2023-02-12T04:04:24.263Z,50.17
2023-02-12T04:06:53.457Z,48.95
2023-02-12T04:09:22.838Z,42.65
2023-02-12T04:12:08.647Z,52.10
2023-02-12T04:15:03.015Z,40.17
2023-02-12T04:18:18.455Z,33.38
2023-02-12T04:21:00.878Z,29.83
2023-02-12T04:23:51.877Z,34.22
2023-02-12T04:26:28.649Z,35.22
2023-02-12T04:29:14.676Z,31.30
2023-02-12T04:31:55.758Z,33.83
2023-02-12T04:34:44.565Z,35.03
2023-02-12T04:37:37.138Z,31.40
2023-02-12T04:40:07.480Z,44.88
2023-02-12T04:42:46.688Z,44.90
2023-02-12T04:45:24.094Z,48.35
2023-02-12T04:47:52.246Z,53.72
2023-02-12T04:50:20.717Z,57.20
2023-02-12T04:52:48.948Z,48.53
2023-02-12T04:55:16.606Z,69.03
2023-02-12T04:57:44.167Z,65.90
2023-02-12T05:00:15.929Z,66.18
2023-02-12T05:02:43.563Z,54.17
2023-02-12T05:05:11.212Z,38.88
2023-02-12T05:07:38.771Z,53.08
2023-02-12T05:10:06.872Z,40.45
2023-02-12T05:12:34.336Z,52.20
2023-02-12T05:15:02.101Z,45.92
2023-02-12T05:17:29.894Z,40.50
2023-02-12T05:19:57.406Z,39.72
2023-02-12T05:22:28.339Z,45.85
2023-02-12T05:24:56.120Z,58.97
2023-02-12T05:27:24.279Z,69.97
2023-02-12T05:29:52.038Z,55.78
2023-02-12T05:32:19.983Z,65.57
2023-02-12T05:34:47.604Z,54.50
2023-02-12T05:37:20.454Z,60.63
2023-02-12T05:39:50.474Z,41.90
2023-02-12T05:42:18.066Z,47.53
2023-02-12T05:44:45.729Z,40.70
2023-02-12T05:47:13.696Z,74.50
2023-02-12T05:49:41.421Z,67.35
2023-02-12T05:52:08.901Z,52.58
2023-02-12T05:54:36.389Z,51.28
2023-02-12T05:57:04.371Z,61.65
2023-02-12T05:59:40.802Z,66.53
2023-02-12T06:02:08.373Z,156.55
2023-02-12T06:04:35.883Z,153.45
2023-02-12T06:07:03.464Z,148.43
2023-02-12T06:09:31.550Z,115.22
2023-02-12T06:11:59.759Z,85.80
2023-02-12T06:14:31.920Z,73.32
2023-02-12T06:17:00.827Z,56.95
2023-02-12T06:19:29.585Z,59.45
2023-02-12T06:21:57.400Z,58.53
2023-02-12T06:24:25.108Z,73.07
2023-02-12T06:26:52.865Z,75.80
2023-02-12T06:29:21.470Z,75.22
2023-02-12T06:31:49.740Z,87.97
2023-02-12T06:34:18.479Z,108.72
2023-02-12T06:36:47.194Z,114.20
2023-02-12T06:39:16.424Z,125.07
2023-02-12T06:41:44.965Z,131.38
2023-02-12T06:44:13.182Z,136.50
2023-02-12T06:46:40.765Z,137.73
2023-02-12T06:49:08.490Z,130.07
2023-02-12T06:51:38.433Z,115.75
2023-02-12T06:54:06.140Z,93.50
2023-02-12T06:56:34.204Z,61.35
2023-02-12T06:59:01.766Z,81.22
2023-02-12T07:01:31.171Z,80.03
2023-02-12T07:04:01.142Z,90.95
2023-02-12T07:06:30.997Z,165.90
2023-02-12T07:08:58.791Z,158.55
2023-02-12T07:11:32.190Z,150.35
2023-02-12T07:14:00.361Z,163.13
2023-02-12T07:16:28.564Z,153.45
2023-02-12T07:18:56.587Z,160.85
2023-02-12T07:21:24.485Z,144.10
2023-02-12T07:23:53.553Z,132.50
2023-02-12T07:26:22.347Z,159.43
2023-02-12T07:28:52.278Z,142.05
2023-02-12T07:31:22.315Z,141.95
2023-02-12T07:33:54.822Z,139.75
2023-02-12T07:36:27.674Z,148.13
2023-02-12T07:38:56.093Z,148.23
2023-02-12T07:41:27.178Z,139.25
2023-02-12T07:43:59.473Z,183.82
2023-02-12T07:46:33.043Z,178.60
2023-02-12T07:49:04.344Z,166.37
2023-02-12T07:51:34.385Z,175.07
2023-02-12T07:54:05.730Z,175.10
2023-02-12T07:56:37.646Z,155.07
2023-02-12T07:59:14.338Z,147.30
2023-02-12T08:01:45.584Z,144.43
2023-02-12T08:04:16.379Z,151.77
2023-02-12T08:06:47.075Z,160.68
2023-02-12T08:09:19.804Z,153.07
2023-02-12T08:11:48.156Z,155.35
2023-02-12T08:14:19.937Z,143.27
2023-02-12T08:16:51.194Z,174.30
2023-02-12T08:19:23.970Z,196.77
2023-02-12T08:21:58.794Z,140.73
2023-02-12T08:24:30.322Z,141.27
2023-02-12T08:27:00.637Z,142.90
2023-02-12T08:29:30.538Z,139.05
2023-02-12T08:32:03.230Z,157.07
2023-02-12T08:34:33.378Z,149.60
2023-02-12T08:37:07.548Z,167.95
2023-02-12T08:39:36.842Z,166.15
2023-02-12T08:42:06.926Z,164.10
2023-02-12T08:44:34.679Z,173.77
2023-02-12T08:47:06.911Z,179.40
2023-02-12T08:49:34.811Z,178.82
2023-02-12T08:52:02.681Z,178.70
2023-02-12T08:54:31.639Z,150.80
2023-02-12T08:57:03.727Z,132.25
2023-02-12T08:59:31.819Z,142.02
2023-02-12T09:02:00.754Z,142.80
2023-02-12T09:04:29.771Z,139.02
2023-02-12T09:06:57.265Z,126.00
2023-02-12T09:09:24.793Z,132.25
2023-02-12T09:11:52.351Z,142.85
2023-02-12T09:14:24.487Z,145.85
2023-02-12T09:16:53.689Z,152.23
2023-02-12T09:19:22.045Z,173.57
2023-02-12T09:21:56.020Z,260.20
2023-02-12T09:24:37.486Z,194.85
2023-02-12T09:27:49.181Z,169.23
2023-02-12T09:44:05.679Z,65.70
2023-02-12T09:47:03.296Z,47.38
2023-02-12T09:49:55.642Z,42.58
2023-02-12T09:52:31.146Z,46.72
2023-02-12T09:55:00.268Z,38.67
2023-02-12T09:57:36.697Z,43.00
2023-02-12T10:00:34.133Z,46.97
2023-02-12T10:03:07.138Z,43.85
2023-02-12T10:05:45.231Z,37.30
2023-02-12T10:15:29.094Z,38.20
2023-02-12T10:18:40.829Z,36.88
2023-02-12T10:21:54.807Z,38.13
2023-02-12T10:24:58.491Z,39.85
2023-02-12T10:27:50.099Z,42.97
2023-02-12T10:30:45.418Z,41.00
2023-02-12T10:35:53.319Z,41.88
2023-02-12T10:38:27.349Z,48.72
2023-02-12T10:40:58.118Z,47.95
2023-02-12T10:43:26.243Z,42.67
2023-02-12T10:45:56.716Z,44.85
2023-02-12T10:48:38.322Z,47.78
2023-02-12T10:58:16.878Z,50.33
2023-02-12T11:00:44.689Z,43.47
2023-02-12T11:09:30.002Z,44.45
2023-02-12T11:11:58.694Z,42.42
2023-02-12T11:21:30.437Z,37.22
2023-02-12T11:23:58.363Z,44.65
2023-02-12T11:26:29.418Z,44.95
2023-02-12T11:29:02.839Z,44.80
2023-02-12T11:31:36.967Z,45.35
2023-02-12T11:34:04.694Z,45.70
2023-02-12T11:36:37.393Z,42.75
2023-02-12T11:39:07.828Z,37.45
2023-02-12T11:41:41.559Z,36.25
2023-02-12T11:44:19.251Z,38.35
2023-02-12T11:47:12.228Z,35.72
2023-02-12T11:49:44.441Z,31.15
2023-02-12T11:52:27.093Z,34.45
2023-02-12T11:54:58.494Z,36.90
2023-02-12T11:57:47.346Z,34.83
2023-02-12T12:00:38.798Z,36.92
2023-02-12T12:03:29.774Z,36.42
2023-02-12T12:06:13.619Z,33.65
2023-02-12T12:08:56.355Z,40.85
2023-02-12T12:11:38.524Z,44.67
2023-02-12T12:14:28.923Z,45.65
2023-02-12T12:17:24.054Z,37.00
2023-02-12T12:20:17.371Z,38.42
2023-02-12T12:22:56.233Z,42.53
2023-02-12T12:34:17.505Z,38.58
2023-02-12T12:37:23.480Z,42.35
2023-02-12T13:32:01.993Z,30.40
2023-02-12T14:09:33.049Z,11.48
2023-02-12T14:12:12.643Z,10.05
2023-02-12T14:14:55.040Z,6.68
2023-02-12T14:18:06.540Z,7.28
2023-02-12T14:20:45.895Z,10.05
2023-02-12T14:23:49.367Z,8.93
2023-02-12T14:30:03.109Z,16.98
2023-02-12T14:32:58.954Z,15.25
2023-02-12T14:35:37.560Z,15.25
2023-02-12T14:38:59.428Z,13.38
2023-02-12T14:41:35.277Z,16.67
2023-02-12T14:44:37.696Z,14.23
2023-02-12T15:12:37.725Z,21.02
2023-02-12T16:17:43.700Z,19.25
2023-02-12T16:33:13.902Z,16.25
2023-02-12T16:35:46.142Z,16.90
2023-02-12T16:39:14.090Z,17.92
2023-02-12T16:52:59.274Z,13.93
2023-02-12T16:56:24.097Z,14.70
2023-02-12T16:59:01.818Z,13.82
2023-02-12T17:02:54.788Z,17.45
2023-02-12T17:05:37.950Z,14.57
2023-02-12T17:08:36.822Z,15.00
2023-02-12T17:11:23.357Z,12.05
2023-02-12T17:17:49.124Z,14.68
2023-02-12T17:20:17.996Z,12.80
2023-02-12T17:23:03.719Z,12.15
2023-02-12T17:25:36.290Z,12.70
2023-02-12T17:28:03.903Z,13.32
2023-02-12T17:33:51.794Z,14.88
2023-02-12T17:36:28.566Z,10.85
2023-02-12T17:39:25.428Z,13.70
2023-02-12T17:42:04.276Z,16.50
2023-02-12T17:44:40.849Z,13.57
2023-02-12T17:47:11.068Z,12.48
2023-02-12T17:49:40.292Z,13.55
2023-02-12T17:52:14.680Z,17.02
2023-02-12T17:55:17.454Z,14.05
2023-02-12T17:57:59.437Z,13.35
2023-02-12T18:01:01.165Z,11.77
2023-02-12T18:03:34.343Z,12.02
2023-02-12T18:06:20.537Z,13.65
2023-02-12T18:11:59.809Z,14.10
2023-02-12T18:17:54.352Z,13.52
2023-02-12T18:20:29.554Z,11.73
2023-02-12T18:26:13.028Z,12.50
2023-02-12T18:28:48.911Z,10.57
2023-02-12T18:31:22.366Z,10.77
2023-02-12T18:33:53.335Z,11.07
2023-02-12T18:36:27.401Z,11.98
2023-02-12T18:39:02.140Z,12.98
2023-02-12T18:41:36.364Z,10.98
2023-02-12T18:44:10.156Z,11.18
2023-02-12T18:46:38.592Z,11.27
2023-02-12T18:52:19.273Z,12.68
2023-02-12T18:57:29.746Z,8.75
2023-02-12T19:00:10.528Z,11.40
2023-02-12T19:09:16.115Z,9.75
2023-02-12T19:11:50.122Z,10.88
2023-02-12T19:14:28.471Z,9.73
2023-02-12T19:17:07.133Z,8.10
2023-02-12T19:19:35.492Z,8.73
2023-02-12T19:22:03.016Z,9.80
2023-02-12T19:24:45.557Z,8.82
2023-02-12T19:27:18.250Z,9.07
2023-02-12T19:29:58.325Z,8.55
2023-02-12T19:32:25.839Z,10.75
2023-02-12T19:34:53.581Z,7.68
2023-02-12T19:37:21.150Z,9.43
2023-02-12T19:39:48.843Z,8.88
2023-02-12T19:42:17.726Z,9.38
2023-02-12T19:44:46.968Z,10.57
2023-02-12T19:47:17.084Z,9.38
2023-02-12T19:49:49.646Z,7.80
2023-02-12T19:52:17.156Z,8.60
2023-02-12T19:54:45.703Z,7.95
2023-02-12T19:57:13.730Z,8.48
2023-02-12T19:59:42.154Z,8.23
2023-02-12T20:02:14.629Z,9.05
2023-02-12T20:04:42.275Z,7.07
2023-02-12T20:07:57.375Z,7.72
2023-02-12T20:11:17.264Z,8.55
2023-02-12T20:13:50.393Z,7.70
2023-02-12T20:16:21.860Z,8.55
2023-02-12T20:18:56.451Z,9.48
2023-02-12T20:28:51.405Z,7.32
2023-02-12T20:31:21.056Z,7.55
2023-02-12T20:33:53.415Z,6.95
2023-02-12T20:36:25.725Z,7.85
2023-02-12T20:45:20.058Z,7.28
2023-02-12T20:47:58.205Z,9.32
2023-02-12T20:50:35.883Z,10.73
2023-02-12T20:53:06.496Z,7.63
2023-02-12T20:55:36.742Z,8.52
2023-02-12T20:58:04.617Z,6.68
2023-02-12T21:00:32.443Z,8.00
2023-02-12T21:03:04.084Z,8.57
2023-02-12T21:05:34.756Z,7.25
2023-02-12T21:08:05.595Z,7.22
2023-02-12T21:23:43.244Z,9.95
2023-02-12T21:26:16.738Z,7.32
2023-02-12T21:28:48.307Z,7.85
2023-02-12T21:31:23.505Z,8.00
2023-02-12T21:33:53.154Z,8.80
2023-02-12T21:36:24.506Z,7.78
2023-02-12T21:38:54.010Z,7.55
2023-02-12T21:41:31.846Z,7.15
2023-02-12T21:44:01.954Z,8.30
2023-02-12T21:46:30.505Z,6.93
2023-02-12T21:49:05.077Z,7.50
2023-02-12T21:54:05.015Z,6.30
2023-02-12T21:56:36.204Z,12.20
2023-02-12T21:59:04.590Z,7.95
2023-02-12T22:01:43.760Z,7.05
2023-02-12T22:04:12.119Z,11.00
2023-02-12T22:07:00.546Z,8.15
2023-02-12T22:09:32.348Z,8.18
2023-02-12T22:14:56.697Z,8.70
2023-02-12T22:17:24.975Z,7.63
2023-02-12T22:19:52.748Z,7.95
2023-02-12T22:22:30.181Z,9.57
2023-02-12T22:25:02.908Z,7.85
2023-02-12T22:27:38.907Z,7.22
2023-02-12T22:30:07.464Z,9.07
2023-02-12T22:32:35.420Z,8.80
2023-02-12T22:35:11.021Z,8.90
2023-02-12T22:37:41.698Z,8.38
2023-02-12T22:40:13.568Z,8.90
2023-02-12T22:42:42.193Z,9.73
2023-02-12T22:45:16.044Z,12.55
2023-02-12T22:47:50.754Z,7.63
2023-02-12T22:50:22.281Z,8.98
2023-02-12T22:52:52.971Z,13.45
2023-02-12T22:55:23.915Z,9.60
2023-02-12T22:57:52.591Z,8.80
2023-02-12T23:00:36.226Z,8.18
2023-02-12T23:03:12.867Z,10.68
2023-02-12T23:05:46.733Z,8.70
2023-02-12T23:08:15.599Z,10.70
2023-02-12T23:10:45.731Z,13.27
2023-02-12T23:13:24.752Z,8.18
2023-02-12T23:16:01.036Z,9.07
2023-02-12T23:18:28.948Z,7.53
2023-02-12T23:20:57.243Z,8.38
2023-02-12T23:23:28.705Z,7.97
2023-02-12T23:26:02.347Z,7.95
2023-02-12T23:32:22.176Z,9.18
2023-02-12T23:34:49.828Z,11.85
2023-02-12T23:37:17.495Z,7.97
2023-02-12T23:39:45.239Z,13.05
2023-02-12T23:42:18.525Z,7.93
2023-02-12T23:44:50.081Z,8.75
2023-02-12T23:47:22.257Z,10.43
2023-02-12T23:49:57.284Z,7.95
2023-02-12T23:52:25.256Z,8.75
2023-02-12T23:54:53.435Z,9.48
2023-02-12T23:57:31.225Z,8.10
2023-02-12T23:59:59.190Z,9.00
